Wan Hai 508 — 9VJJ6 — position and weather

sailwx.info

Track history (hours):
 
Tides and Currents Weather Stations Pressure Air Temp Water Temp Dewpoint Dewpoint Depression Visibility Wind Speed Wind Dir Waves Ship Positions

Wan Hai 508

Last reported at 2017-Feb-23 18:34 UTC. Time now 2017-Feb-25 07:26 UTC.
Position N 01°56' E 102°19'.

Length 269 m; draft 9 m.

Type: Cargo ship. MMSI: 565567000.

Date/timePositionNaut miles runAvg speedWind from/ knotsBaromVisibWave heightAir tempDewpointWater temp
2017-Feb-23 18:34N 01°56' E 102°19'1616.3
2017-Feb-23 17:34N 01°49' E 102°34'1616.1
2017-Feb-23 16:33N 01°42' E 102°49'3315.4
2017-Feb-23 14:24N 01°23' E 103°16'1214.8
2017-Feb-23 13:34N 01°15' E 103°25'1414.2
2017-Feb-23 12:33N 01°12' E 103°39'9 8.7
2017-Feb-23 11:33N 01°17' E 103°46'0 0.1
2017-Feb-23 10:29N 01°17' E 103°46'0 0.0
2017-Feb-23 09:32N 01°17' E 103°46'0 0.0
2017-Feb-23 08:32N 01°17' E 103°46'0 0.0
2017-Feb-23 07:33N 01°17' E 103°46'0 0.0
2017-Feb-23 06:32N 01°17' E 103°46'0 0.0
2017-Feb-23 05:29N 01°17' E 103°46'0 0.0
2017-Feb-23 04:33N 01°17' E 103°46'0 0.0
2017-Feb-23 03:32N 01°17' E 103°46'0 0.0
2017-Feb-23 02:33N 01°17' E 103°46'0 0.0
2017-Feb-23 01:29N 01°17' E 103°46'0 0.0
2017-Feb-23 00:32N 01°17' E 103°46'0 0.0
2017-Feb-22 23:32N 01°17' E 103°46'0 0.0
2017-Feb-22 22:33N 01°17' E 103°46'0 0.1
2017-Feb-22 21:33N 01°17' E 103°46'5 5.2
2017-Feb-22 20:34N 01°13' E 103°49'4 3.7
2017-Feb-22 19:31N 01°16' E 103°50'0 0.1
2017-Feb-22 18:31N 01°16' E 103°50'0 0.0
2017-Feb-22 17:25N 01°16' E 103°50'0 0.0
2017-Feb-22 16:31N 01°16' E 103°50'0 0.0
2017-Feb-22 15:31N 01°16' E 103°50'0 0.1
2017-Feb-22 14:19N 01°16' E 103°50'0 0.1
2017-Feb-22 13:28N 01°16' E 103°50'0 0.0
2017-Feb-22 12:31N 01°16' E 103°50'0 0.0
2017-Feb-22 11:31N 01°16' E 103°50'0 0.0
2017-Feb-22 10:31N 01°16' E 103°50'0 0.0
2017-Feb-22 09:31N 01°16' E 103°50'0 0.0
2017-Feb-22 08:31N 01°16' E 103°50'0 0.0
2017-Feb-22 07:31N 01°16' E 103°50'0 0.2
2017-Feb-22 06:33N 01°16' E 103°50'5 4.7
2017-Feb-22 05:33N 01°13' E 103°54'1010.0
2017-Feb-22 04:33N 01°08' E 103°46'10 9.8
2017-Feb-22 03:33N 01°04' E 103°36'9 9.3
2017-Feb-22 02:33N 01°09' E 103°29'5214.9
2017-Feb-21 23:04N 01°39' E 102°46'1315.5
2017-Feb-21 22:13N 01°45' E 102°34'1015.5
2017-Feb-21 21:33N 01°49' E 102°25'  
Track history (hours):
 
Tides and Currents Weather Stations Pressure Air Temp Water Temp Dewpoint Dewpoint Depression Visibility Wind Speed Wind Dir Waves Ship Positions

Wan Hai 508

Last reported at 2017-Feb-23 18:34 UTC. Time now 2017-Feb-25 07:26 UTC.
Position N 01°56' E 102°19'.

Length 269 m; draft 9 m.

Type: Cargo ship. MMSI: 565567000.

Date/timePositionNaut miles runAvg speedWind from/ knotsBaromVisibWave heightAir tempDewpointWater temp
2017-Feb-23 18:34N 01°56' E 102°19'1616.3
2017-Feb-23 17:34N 01°49' E 102°34'1616.1
2017-Feb-23 16:33N 01°42' E 102°49'3315.4
2017-Feb-23 14:24N 01°23' E 103°16'1214.8
2017-Feb-23 13:34N 01°15' E 103°25'1414.2
2017-Feb-23 12:33N 01°12' E 103°39'9 8.7
2017-Feb-23 11:33N 01°17' E 103°46'0 0.1
2017-Feb-23 10:29N 01°17' E 103°46'0 0.0
2017-Feb-23 09:32N 01°17' E 103°46'0 0.0
2017-Feb-23 08:32N 01°17' E 103°46'0 0.0
2017-Feb-23 07:33N 01°17' E 103°46'0 0.0
2017-Feb-23 06:32N 01°17' E 103°46'0 0.0
2017-Feb-23 05:29N 01°17' E 103°46'0 0.0
2017-Feb-23 04:33N 01°17' E 103°46'0 0.0
2017-Feb-23 03:32N 01°17' E 103°46'0 0.0
2017-Feb-23 02:33N 01°17' E 103°46'0 0.0
2017-Feb-23 01:29N 01°17' E 103°46'0 0.0
2017-Feb-23 00:32N 01°17' E 103°46'0 0.0
2017-Feb-22 23:32N 01°17' E 103°46'0 0.0
2017-Feb-22 22:33N 01°17' E 103°46'0 0.1
2017-Feb-22 21:33N 01°17' E 103°46'5 5.2
2017-Feb-22 20:34N 01°13' E 103°49'4 3.7
2017-Feb-22 19:31N 01°16' E 103°50'0 0.1
2017-Feb-22 18:31N 01°16' E 103°50'0 0.0
2017-Feb-22 17:25N 01°16' E 103°50'0 0.0
2017-Feb-22 16:31N 01°16' E 103°50'0 0.0
2017-Feb-22 15:31N 01°16' E 103°50'0 0.1
2017-Feb-22 14:19N 01°16' E 103°50'0 0.1
2017-Feb-22 13:28N 01°16' E 103°50'0 0.0
2017-Feb-22 12:31N 01°16' E 103°50'0 0.0
2017-Feb-22 11:31N 01°16' E 103°50'0 0.0
2017-Feb-22 10:31N 01°16' E 103°50'0 0.0
2017-Feb-22 09:31N 01°16' E 103°50'0 0.0
2017-Feb-22 08:31N 01°16' E 103°50'0 0.0
2017-Feb-22 07:31N 01°16' E 103°50'0 0.2
2017-Feb-22 06:33N 01°16' E 103°50'5 4.7
2017-Feb-22 05:33N 01°13' E 103°54'1010.0
2017-Feb-22 04:33N 01°08' E 103°46'10 9.8
2017-Feb-22 03:33N 01°04' E 103°36'9 9.3
2017-Feb-22 02:33N 01°09' E 103°29'5214.9
2017-Feb-21 23:04N 01°39' E 102°46'1315.5
2017-Feb-21 22:13N 01°45' E 102°34'1015.5
2017-Feb-21 21:33N 01°49' E 102°25'  

Dump ship's entire track history